createdAt,value
2022-12-14T00:00:41.944Z,-5.77
2022-12-14T00:03:11.655Z,-5.66
2022-12-14T00:05:44.429Z,-5.54
2022-12-14T00:08:14.142Z,-5.48
2022-12-14T00:10:44.253Z,-5.44
2022-12-14T00:13:17.267Z,-5.45
2022-12-14T00:15:46.825Z,-5.60
2022-12-14T00:18:20.851Z,-5.75
2022-12-14T00:20:54.566Z,-5.84
2022-12-14T00:23:24.085Z,-5.88
2022-12-14T00:25:53.573Z,-5.99
2022-12-14T00:28:23.119Z,-5.97
2022-12-14T00:30:59.288Z,-5.86
2022-12-14T00:33:28.918Z,-5.85
2022-12-14T00:36:01.008Z,-5.83
2022-12-14T00:38:30.691Z,-5.84
2022-12-14T00:41:00.299Z,-5.79
2022-12-14T00:43:29.744Z,-5.88
2022-12-14T00:45:59.419Z,-5.92
2022-12-14T00:48:29.886Z,-5.96
2022-12-14T00:51:02.343Z,-5.99
2022-12-14T00:53:32.355Z,-6.11
2022-12-14T00:56:07.851Z,-6.12
2022-12-14T00:58:37.440Z,-6.09
2022-12-14T01:01:09.091Z,-6.15
2022-12-14T01:03:38.697Z,-2.47
2022-12-14T01:06:16.172Z,-1.25
2022-12-14T01:08:45.670Z,-2.24
2022-12-14T01:11:16.173Z,-1.89
2022-12-14T01:13:49.326Z,-2.04
2022-12-14T01:16:19.715Z,-2.87
2022-12-14T01:18:49.200Z,-3.33
2022-12-14T01:21:24.062Z,-3.97
2022-12-14T01:23:55.037Z,-4.50
2022-12-14T01:26:25.888Z,-4.61
2022-12-14T01:28:57.338Z,-4.84
2022-12-14T01:31:28.421Z,-4.29
2022-12-14T01:33:58.059Z,-4.29
2022-12-14T01:36:31.999Z,-3.94
2022-12-14T01:39:03.422Z,-4.51
2022-12-14T01:41:34.891Z,-4.49
2022-12-14T01:44:06.238Z,-4.77
2022-12-14T01:46:38.487Z,-5.44
2022-12-14T01:49:14.023Z,-5.78
2022-12-14T01:51:49.400Z,-5.86
2022-12-14T01:54:18.994Z,-6.02
2022-12-14T01:56:49.095Z,-5.99
2022-12-14T01:59:22.266Z,-5.99
2022-12-14T02:01:51.870Z,-6.06
2022-12-14T02:04:21.733Z,-6.21
2022-12-14T02:07:00.818Z,-6.23
2022-12-14T02:09:34.383Z,-6.26
2022-12-14T02:12:09.104Z,-6.24
2022-12-14T02:14:39.032Z,-6.30
2022-12-14T02:17:10.009Z,-6.35
2022-12-14T02:19:39.603Z,-6.30
2022-12-14T02:22:30.645Z,-6.33
2022-12-14T02:25:25.811Z,-6.30
2022-12-14T02:28:21.897Z,-6.50
2022-12-14T02:30:58.896Z,-6.57
2022-12-14T02:33:38.143Z,-6.63
2022-12-14T02:36:12.686Z,-6.68
2022-12-14T02:38:49.751Z,-6.75
2022-12-14T02:41:22.951Z,-6.75
2022-12-14T02:43:57.484Z,-6.78
2022-12-14T02:46:32.559Z,-6.89
2022-12-14T02:49:05.088Z,-6.94
2022-12-14T02:51:43.647Z,-6.88
2022-12-14T02:54:15.409Z,-6.96
2022-12-14T02:56:47.988Z,-6.94
2022-12-14T02:59:18.639Z,-6.91
2022-12-14T03:01:52.042Z,-7.01
2022-12-14T03:04:21.706Z,-7.00
2022-12-14T03:06:57.963Z,-6.98
2022-12-14T03:09:28.799Z,-6.93
2022-12-14T03:12:00.429Z,-6.95
2022-12-14T03:14:32.613Z,-6.97
2022-12-14T03:17:07.823Z,-6.99
2022-12-14T03:19:40.172Z,-6.95
2022-12-14T03:22:12.464Z,-7.05
2022-12-14T03:24:44.917Z,-7.07
2022-12-14T03:27:16.946Z,-6.91
2022-12-14T03:29:49.316Z,-6.88
2022-12-14T03:32:23.572Z,-6.98
2022-12-14T03:34:57.577Z,-6.89
2022-12-14T03:37:32.851Z,-6.88
2022-12-14T03:40:02.264Z,-6.84
2022-12-14T03:42:36.966Z,-6.83
2022-12-14T03:45:10.453Z,-6.93
2022-12-14T03:47:55.509Z,-6.99
2022-12-14T03:50:27.811Z,-7.13
2022-12-14T03:53:00.362Z,-7.24
2022-12-14T03:55:34.478Z,-7.27
2022-12-14T03:58:16.176Z,-7.28
2022-12-14T04:00:51.244Z,-7.26
2022-12-14T04:03:31.161Z,-7.21
2022-12-14T04:06:04.901Z,-7.23
2022-12-14T04:08:40.167Z,-7.22
2022-12-14T04:11:24.123Z,-7.35
2022-12-14T04:14:11.768Z,-7.36
2022-12-14T04:16:56.667Z,-7.42
2022-12-14T04:19:33.853Z,-7.51
2022-12-14T04:22:06.790Z,-7.48
2022-12-14T04:24:52.847Z,-7.59
2022-12-14T04:27:25.354Z,-7.64
2022-12-14T04:30:00.465Z,-7.50
2022-12-14T04:32:33.301Z,-7.36
2022-12-14T04:35:08.738Z,-7.23
2022-12-14T04:37:40.151Z,-6.89
2022-12-14T04:40:12.207Z,-5.30
2022-12-14T04:42:47.009Z,-4.27
2022-12-14T04:45:19.404Z,-3.36
2022-12-14T04:47:59.256Z,-3.47
2022-12-14T04:50:34.734Z,-4.77
2022-12-14T04:53:06.641Z,-5.48
2022-12-14T04:55:38.394Z,-5.73
2022-12-14T04:58:13.073Z,-5.50
2022-12-14T05:00:54.727Z,-5.30
2022-12-14T05:03:27.691Z,-5.20
2022-12-14T05:06:09.015Z,-5.00
2022-12-14T05:09:08.800Z,-5.38
2022-12-14T05:11:56.939Z,-5.52
2022-12-14T05:14:32.326Z,-5.01
2022-12-14T05:17:07.955Z,-5.10
2022-12-14T05:19:38.052Z,-5.11
2022-12-14T05:22:11.192Z,-5.84
2022-12-14T05:24:40.821Z,-6.11
2022-12-14T05:27:10.386Z,-6.33
2022-12-14T05:29:39.815Z,-6.69
2022-12-14T05:32:09.295Z,-6.88
2022-12-14T05:34:38.664Z,-6.98
2022-12-14T05:37:17.672Z,-6.39
2022-12-14T05:39:47.696Z,-6.46
2022-12-14T05:42:17.178Z,-6.86
2022-12-14T05:44:46.613Z,-6.93
2022-12-14T05:47:16.821Z,-6.98
2022-12-14T05:49:46.256Z,-6.88
2022-12-14T05:52:21.465Z,-7.01
2022-12-14T05:54:50.816Z,-7.09
2022-12-14T05:57:20.205Z,-7.13
2022-12-14T05:59:50.486Z,-7.16
2022-12-14T06:02:20.093Z,-7.20
2022-12-14T06:04:49.612Z,-7.37
2022-12-14T06:07:26.061Z,-7.50
2022-12-14T06:09:57.057Z,-7.69
2022-12-14T06:12:26.459Z,-7.70
2022-12-14T06:14:55.846Z,-7.63
2022-12-14T06:17:25.257Z,-7.59
2022-12-14T06:19:54.621Z,-7.61
2022-12-14T06:22:27.673Z,-7.69
2022-12-14T06:24:57.116Z,-7.62
2022-12-14T06:27:26.549Z,-7.64
2022-12-14T06:29:55.995Z,-7.51
2022-12-14T06:32:25.792Z,-7.61
2022-12-14T06:34:55.163Z,-7.71
2022-12-14T06:37:27.214Z,-7.62
2022-12-14T06:39:56.568Z,-7.56
2022-12-14T06:42:25.957Z,-7.57
2022-12-14T06:44:55.541Z,-7.55
2022-12-14T06:47:25.849Z,-7.77
2022-12-14T06:49:55.491Z,-7.78
2022-12-14T06:52:27.999Z,-7.84
2022-12-14T06:54:57.632Z,-7.70
2022-12-14T06:57:27.173Z,-7.60
2022-12-14T06:59:56.577Z,-7.51
2022-12-14T07:02:26.211Z,-7.37
2022-12-14T07:04:55.776Z,-7.36
2022-12-14T07:07:28.092Z,-7.52
2022-12-14T07:09:57.475Z,-7.59
2022-12-14T07:12:27.926Z,-7.62
2022-12-14T07:14:57.612Z,-7.63
2022-12-14T07:17:26.989Z,-7.54
2022-12-14T07:19:56.506Z,-7.56
2022-12-14T07:22:28.497Z,-7.71
2022-12-14T07:24:58.704Z,-7.81
2022-12-14T07:27:28.116Z,-7.65
2022-12-14T07:29:57.531Z,-7.51
2022-12-14T07:32:26.976Z,-7.44
2022-12-14T07:34:56.345Z,-7.45
2022-12-14T07:37:28.365Z,-7.49
2022-12-14T07:39:57.796Z,-7.42
2022-12-14T07:42:27.165Z,-7.50
2022-12-14T07:44:56.568Z,-7.58
2022-12-14T07:47:26.072Z,-7.53
2022-12-14T07:49:55.476Z,-7.52
2022-12-14T07:52:24.886Z,-7.57
2022-12-14T07:54:56.873Z,-7.53
2022-12-14T07:57:26.424Z,-7.48
2022-12-14T07:59:57.549Z,-7.41
2022-12-14T08:02:27.299Z,-7.44
2022-12-14T08:04:56.864Z,-7.48
2022-12-14T08:07:26.294Z,-7.53
2022-12-14T08:09:58.259Z,-7.70
2022-12-14T08:12:27.625Z,-7.67
2022-12-14T08:14:57.023Z,-7.71
2022-12-14T08:17:26.404Z,-7.74
2022-12-14T08:19:56.001Z,-7.71
2022-12-14T08:22:25.450Z,-7.66
2022-12-14T08:24:54.851Z,-7.45
2022-12-14T08:27:26.800Z,-7.33
2022-12-14T08:29:56.242Z,-7.47
2022-12-14T08:32:30.944Z,-7.53
2022-12-14T08:35:01.967Z,-7.52
2022-12-14T08:37:31.359Z,-7.51
2022-12-14T08:40:00.781Z,-7.44
2022-12-14T08:42:33.015Z,-7.27
2022-12-14T08:45:02.434Z,-7.20
2022-12-14T08:47:31.912Z,-7.21
2022-12-14T08:50:01.329Z,-7.14
2022-12-14T08:52:30.796Z,-7.20
2022-12-14T08:55:00.156Z,-7.06
2022-12-14T08:57:34.239Z,-7.00
2022-12-14T09:00:03.759Z,-6.60
2022-12-14T09:02:33.395Z,-6.83
2022-12-14T09:05:02.859Z,-6.94
2022-12-14T09:07:32.654Z,-6.93
2022-12-14T09:10:02.166Z,-6.88
2022-12-14T09:12:35.603Z,-6.88
2022-12-14T09:15:05.044Z,-6.91
2022-12-14T09:17:34.548Z,-6.69
2022-12-14T09:20:04.000Z,-6.60
2022-12-14T09:22:33.452Z,-6.47
2022-12-14T09:25:04.588Z,-6.30
2022-12-14T09:27:36.644Z,-6.40
2022-12-14T09:30:06.770Z,-6.42
2022-12-14T09:32:36.193Z,-6.48
2022-12-14T09:35:05.568Z,-6.35
2022-12-14T09:37:34.933Z,-6.30
2022-12-14T09:40:04.372Z,-6.18
2022-12-14T09:42:51.414Z,-6.20
2022-12-14T09:45:25.090Z,-5.56
2022-12-14T09:47:59.097Z,-4.58
2022-12-14T09:50:28.884Z,-4.28
2022-12-14T09:53:00.329Z,-4.21
2022-12-14T09:55:33.822Z,-3.93
2022-12-14T09:58:09.475Z,-4.07
2022-12-14T10:00:51.460Z,-3.74
2022-12-14T10:03:36.306Z,-4.15
2022-12-14T10:06:35.736Z,-4.08
2022-12-14T10:09:14.228Z,-3.97
2022-12-14T10:11:50.456Z,-3.89
2022-12-14T10:14:28.233Z,-3.55
2022-12-14T10:17:03.090Z,-3.69
2022-12-14T10:19:40.856Z,-3.86
2022-12-14T10:22:14.821Z,-3.58
2022-12-14T10:24:46.925Z,-3.13
2022-12-14T10:27:23.633Z,-3.43
2022-12-14T10:30:01.349Z,-3.89
2022-12-14T10:32:35.861Z,-4.08
2022-12-14T10:35:15.906Z,-4.12
2022-12-14T10:37:47.260Z,-4.12
2022-12-14T10:40:32.561Z,-4.14
2022-12-14T10:43:10.333Z,-4.10
2022-12-14T10:45:44.796Z,-4.08
2022-12-14T10:48:41.958Z,-4.09
2022-12-14T10:51:14.752Z,-4.07
2022-12-14T10:53:47.817Z,-4.08
2022-12-14T10:56:22.794Z,-3.98
2022-12-14T10:59:15.686Z,-3.85
2022-12-14T11:01:51.174Z,-3.70
2022-12-14T11:04:30.853Z,-3.80
2022-12-14T11:07:01.406Z,-3.81
2022-12-14T11:09:31.785Z,-3.80
2022-12-14T11:12:02.671Z,-3.80
2022-12-14T11:14:32.673Z,-3.76
2022-12-14T11:17:05.824Z,-3.60
2022-12-14T11:19:37.647Z,-3.54
2022-12-14T11:22:15.782Z,-3.72
2022-12-14T11:24:51.737Z,-3.64
2022-12-14T11:27:24.044Z,-3.51
2022-12-14T11:29:54.025Z,-3.33
2022-12-14T11:32:27.716Z,-3.38
2022-12-14T11:35:01.396Z,-3.31
2022-12-14T11:37:32.701Z,-3.22
2022-12-14T11:40:04.048Z,-3.12
2022-12-14T11:42:33.526Z,-2.96
2022-12-14T11:45:22.670Z,-3.00
2022-12-14T11:48:13.742Z,-2.91
2022-12-14T11:50:43.663Z,-2.85
2022-12-14T11:53:14.758Z,-2.76
2022-12-14T11:55:47.773Z,-2.83
2022-12-14T11:58:19.665Z,-2.63
2022-12-14T12:00:51.568Z,-2.62
2022-12-14T12:03:27.263Z,-2.53
2022-12-14T12:05:57.097Z,-2.54
2022-12-14T12:08:29.288Z,-2.54
2022-12-14T12:11:02.588Z,-2.49
2022-12-14T12:13:34.291Z,-2.49
2022-12-14T12:16:07.044Z,-2.26
2022-12-14T12:18:46.282Z,-2.17
2022-12-14T12:21:18.888Z,-2.03
2022-12-14T12:23:51.875Z,-1.94
2022-12-14T12:26:24.300Z,-1.92
2022-12-14T12:28:57.019Z,-1.95
2022-12-14T12:31:29.573Z,-2.00
2022-12-14T12:34:05.367Z,-2.04
2022-12-14T12:36:35.419Z,-1.56
2022-12-14T12:39:08.002Z,-1.33
2022-12-14T12:41:49.336Z,-1.42
2022-12-14T12:44:28.931Z,-1.17
2022-12-14T12:47:38.199Z,-0.78
2022-12-14T12:50:06.954Z,-0.48
2022-12-14T12:52:39.038Z,-0.24
2022-12-14T12:55:12.272Z,0.22
2022-12-14T12:57:44.692Z,0.56
2022-12-14T13:00:20.188Z,1.11
2022-12-14T13:02:52.556Z,0.98
2022-12-14T13:05:46.212Z,1.73
2022-12-14T13:08:22.846Z,2.04
2022-12-14T13:11:24.672Z,2.28
2022-12-14T13:13:44.762Z,2.82
2022-12-14T13:16:24.675Z,2.78
2022-12-14T13:19:08.978Z,2.93
2022-12-14T13:21:54.545Z,2.91
2022-12-14T13:24:26.087Z,2.78
2022-12-14T13:27:15.310Z,2.76
2022-12-14T13:29:56.394Z,2.23
2022-12-14T13:32:43.492Z,2.24
2022-12-14T13:35:25.562Z,2.12
2022-12-14T13:38:10.032Z,1.98
2022-12-14T13:41:04.965Z,0.62
2022-12-14T13:43:54.357Z,-0.18
2022-12-14T13:46:25.565Z,-0.11
2022-12-14T13:48:56.853Z,0.01
2022-12-14T13:51:31.032Z,0.53
2022-12-14T13:54:07.978Z,1.38
2022-12-14T13:56:40.221Z,2.05
2022-12-14T13:59:26.440Z,2.54
2022-12-14T14:01:59.788Z,2.95
2022-12-14T14:04:31.043Z,2.95
2022-12-14T14:07:50.941Z,2.56
2022-12-14T14:10:34.203Z,1.97
2022-12-14T14:13:04.637Z,1.94
2022-12-14T14:18:50.593Z,0.57
2022-12-14T14:21:38.911Z,0.10
2022-12-14T14:24:26.369Z,-0.38
2022-12-14T14:27:04.089Z,-0.63
2022-12-14T14:29:34.076Z,-0.88
2022-12-14T14:32:04.851Z,-0.92
2022-12-14T14:34:40.173Z,-0.86
2022-12-14T14:37:26.889Z,-0.82
2022-12-14T14:40:18.857Z,-0.80
2022-12-14T14:42:54.553Z,-1.18
2022-12-14T14:45:31.568Z,-1.25
2022-12-14T14:48:02.353Z,-1.56
2022-12-14T14:50:34.806Z,-1.79
2022-12-14T14:53:14.385Z,-1.94
2022-12-14T14:55:55.549Z,-1.96
2022-12-14T14:58:30.940Z,-1.98
2022-12-14T15:01:15.599Z,-1.94
2022-12-14T15:03:50.931Z,-2.09
2022-12-14T15:06:23.747Z,-2.13
2022-12-14T15:08:58.765Z,-2.27
2022-12-14T15:11:37.332Z,-2.20
2022-12-14T15:14:18.247Z,-2.15
2022-12-14T15:16:48.240Z,-2.47
2022-12-14T15:19:24.808Z,-2.46
2022-12-14T15:21:56.533Z,-2.62
2022-12-14T15:24:26.865Z,-2.64
2022-12-14T15:26:58.909Z,-2.54
2022-12-14T15:29:30.502Z,-2.64
2022-12-14T15:32:04.119Z,-2.86
2022-12-14T15:34:33.709Z,-2.89
2022-12-14T15:37:03.442Z,-2.93
2022-12-14T15:39:40.695Z,-3.09
2022-12-14T15:42:18.104Z,-3.07
2022-12-14T15:44:54.170Z,-3.26
2022-12-14T15:47:29.792Z,-3.34
2022-12-14T15:50:18.118Z,-3.26
2022-12-14T15:52:48.481Z,-3.32
2022-12-14T15:55:29.515Z,-3.37
2022-12-14T15:58:03.236Z,-3.41
2022-12-14T16:00:32.711Z,-3.52
2022-12-14T16:03:06.954Z,-3.53
2022-12-14T16:05:37.519Z,-3.47
2022-12-14T16:08:08.276Z,-3.62
2022-12-14T16:10:37.775Z,-3.71
2022-12-14T16:13:12.476Z,-3.64
2022-12-14T16:15:42.022Z,-3.76
2022-12-14T16:18:15.144Z,-3.96
2022-12-14T16:20:47.055Z,-4.02
2022-12-14T16:23:28.853Z,-3.81
2022-12-14T16:26:00.844Z,-3.91
2022-12-14T16:28:34.980Z,-3.89
2022-12-14T16:31:06.363Z,-3.76
2022-12-14T16:33:37.608Z,-3.59
2022-12-14T16:36:09.296Z,-3.49
2022-12-14T16:38:44.169Z,-3.63
2022-12-14T16:41:13.843Z,-3.85
2022-12-14T16:43:57.362Z,-4.07
2022-12-14T16:46:26.953Z,-4.22
2022-12-14T16:49:24.822Z,-4.27
2022-12-14T16:52:09.364Z,-4.35
2022-12-14T16:54:40.448Z,-4.30
2022-12-14T16:57:20.717Z,-4.24
2022-12-14T17:00:02.301Z,-4.17
2022-12-14T17:02:34.534Z,-4.50
2022-12-14T17:05:07.220Z,-4.72
2022-12-14T17:07:36.992Z,-4.80
2022-12-14T17:10:07.103Z,-4.81
2022-12-14T17:12:36.618Z,-2.95
2022-12-14T17:15:09.632Z,-2.25
2022-12-14T17:17:39.332Z,-3.22
2022-12-14T17:20:14.248Z,-3.52
2022-12-14T17:22:49.643Z,-3.95
2022-12-14T17:25:20.295Z,-3.39
2022-12-14T17:27:50.151Z,-3.66
2022-12-14T17:30:24.412Z,-4.02
2022-12-14T17:32:55.487Z,-3.58
2022-12-14T17:35:28.720Z,-3.86
2022-12-14T17:37:58.220Z,-4.30
2022-12-14T17:40:28.400Z,-4.45
2022-12-14T17:42:59.920Z,-4.51
2022-12-14T17:45:32.964Z,-4.47
2022-12-14T17:48:02.476Z,-4.54
2022-12-14T17:50:32.235Z,-4.55
2022-12-14T17:53:03.001Z,-4.61
2022-12-14T17:55:33.130Z,-4.73
2022-12-14T17:58:02.753Z,-5.06
2022-12-14T18:00:47.532Z,-5.10
2022-12-14T18:03:18.306Z,-5.19
2022-12-14T18:05:49.551Z,-5.22
2022-12-14T18:08:19.527Z,-5.08
2022-12-14T18:10:50.290Z,-5.18
2022-12-14T18:13:19.892Z,-5.18
2022-12-14T18:15:54.062Z,-5.31
2022-12-14T18:18:28.324Z,-5.30
2022-12-14T18:21:00.215Z,-5.21
2022-12-14T18:23:30.835Z,-5.42
2022-12-14T18:26:02.847Z,-5.19
2022-12-14T18:28:32.308Z,-5.16
2022-12-14T18:31:07.307Z,-5.15
2022-12-14T18:33:36.848Z,-5.19
2022-12-14T18:36:06.696Z,-5.22
2022-12-14T18:38:36.157Z,-5.18
2022-12-14T18:41:08.631Z,-5.22
2022-12-14T18:43:43.414Z,-5.39
2022-12-14T18:46:16.113Z,-5.38
2022-12-14T18:48:46.506Z,-5.28
2022-12-14T18:51:17.199Z,-5.37
2022-12-14T18:53:46.641Z,-5.46
2022-12-14T18:56:18.485Z,-5.34
2022-12-14T18:58:47.995Z,-2.79
2022-12-14T19:01:22.394Z,-2.06
2022-12-14T19:03:52.609Z,-3.48
2022-12-14T19:09:15.155Z,-4.84
2022-12-14T19:11:46.094Z,-5.30
2022-12-14T19:14:15.596Z,-5.48
2022-12-14T19:16:47.616Z,-5.57
2022-12-14T19:19:19.951Z,-5.59
2022-12-14T19:21:52.427Z,-4.69
2022-12-14T19:24:22.150Z,-4.32
2022-12-14T19:26:51.668Z,-4.80
2022-12-14T19:29:21.203Z,-5.03
2022-12-14T19:31:54.562Z,-4.73
2022-12-14T19:34:25.107Z,-5.37
2022-12-14T19:36:54.674Z,-5.71
2022-12-14T19:39:24.382Z,-5.91
2022-12-14T19:41:54.223Z,-5.92
2022-12-14T19:44:23.908Z,-5.88
2022-12-14T19:46:56.174Z,-5.93
2022-12-14T19:49:25.659Z,-5.92
2022-12-14T19:51:55.203Z,-5.85
2022-12-14T19:54:25.072Z,-5.88
2022-12-14T19:56:54.678Z,-6.05
2022-12-14T19:59:24.351Z,-6.05
2022-12-14T20:01:57.619Z,-6.00
2022-12-14T20:04:27.245Z,-6.00
2022-12-14T20:06:56.818Z,-6.03
2022-12-14T20:09:26.393Z,-6.10
2022-12-14T20:11:55.925Z,-6.27
2022-12-14T20:14:25.371Z,-6.30
2022-12-14T20:17:00.154Z,-6.40
2022-12-14T20:19:29.606Z,-6.39
2022-12-14T20:21:59.149Z,-6.41
2022-12-14T20:24:28.636Z,-6.46
2022-12-14T20:26:58.124Z,-6.46
2022-12-14T20:29:27.969Z,-6.47
2022-12-14T20:32:00.166Z,-6.39
2022-12-14T20:34:30.726Z,-6.27
2022-12-14T20:37:00.173Z,-6.37
2022-12-14T20:39:29.623Z,-6.39
2022-12-14T20:41:59.036Z,-6.40
2022-12-14T20:44:28.519Z,-6.48
2022-12-14T20:47:00.636Z,-6.45
2022-12-14T20:49:32.901Z,-6.44
2022-12-14T20:52:02.673Z,-6.46
2022-12-14T20:54:32.214Z,-6.55
2022-12-14T20:57:01.759Z,-6.54
2022-12-14T20:59:31.220Z,-6.57
2022-12-14T21:02:03.567Z,-6.55
2022-12-14T21:04:33.147Z,-6.47
2022-12-14T21:07:02.681Z,-6.63
2022-12-14T21:09:32.113Z,-6.66
2022-12-14T21:12:14.030Z,-6.71
2022-12-14T21:14:48.167Z,-6.77
2022-12-14T21:17:21.040Z,-6.71
2022-12-14T21:19:51.063Z,-6.65
2022-12-14T21:22:22.402Z,-6.50
2022-12-14T21:25:02.937Z,-6.58
2022-12-14T21:27:33.880Z,-6.68
2022-12-14T21:30:03.459Z,-6.71
2022-12-14T21:32:37.950Z,-6.75
2022-12-14T21:35:08.901Z,-6.81
2022-12-14T21:37:40.374Z,-6.86
2022-12-14T21:40:31.181Z,-6.80
2022-12-14T21:42:58.020Z,-6.66
2022-12-14T21:45:27.553Z,-6.71
2022-12-14T21:47:59.717Z,-6.89
2022-12-14T21:50:29.239Z,-6.97
2022-12-14T21:52:58.767Z,-7.05
2022-12-14T21:55:28.285Z,-7.00
2022-12-14T21:58:10.222Z,-6.83
2022-12-14T22:00:40.364Z,-6.72
2022-12-14T22:03:12.621Z,-6.76
2022-12-14T22:05:42.323Z,-6.71
2022-12-14T22:08:11.771Z,-7.03
2022-12-14T22:10:41.273Z,-7.19
2022-12-14T22:13:10.766Z,-7.18
2022-12-14T22:15:40.296Z,-7.14
2022-12-14T22:18:12.362Z,-7.15
2022-12-14T22:20:41.820Z,-7.21
2022-12-14T22:23:11.208Z,-7.21
2022-12-14T22:25:40.665Z,-7.24
2022-12-14T22:28:10.158Z,-7.18
2022-12-14T22:30:39.974Z,-7.15
2022-12-14T22:33:12.587Z,-7.17
2022-12-14T22:35:42.220Z,-7.21
2022-12-14T22:38:11.633Z,-7.15
2022-12-14T22:40:41.075Z,-7.18
2022-12-14T22:43:10.653Z,-7.26
2022-12-14T22:45:40.104Z,-7.23
2022-12-14T22:48:12.360Z,-7.30
2022-12-14T22:50:41.905Z,-7.33
2022-12-14T22:53:12.991Z,-7.41
2022-12-14T22:55:46.355Z,-7.39
2022-12-14T22:58:20.276Z,-7.41
2022-12-14T23:00:50.954Z,-7.42
2022-12-14T23:03:24.288Z,-7.48
2022-12-14T23:05:58.773Z,-7.48
2022-12-14T23:08:31.408Z,-7.48
2022-12-14T23:11:13.323Z,-7.53
2022-12-14T23:13:55.243Z,-7.55
2022-12-14T23:16:37.252Z,-7.48
2022-12-14T23:19:21.821Z,-7.48
2022-12-14T23:22:03.830Z,-7.38
2022-12-14T23:24:46.694Z,-7.43
2022-12-14T23:27:28.619Z,-7.50
2022-12-14T23:30:10.593Z,-7.52
2022-12-14T23:32:52.692Z,-7.55
2022-12-14T23:35:38.224Z,-7.49
2022-12-14T23:38:20.513Z,-7.42
2022-12-14T23:41:02.494Z,-7.53
2022-12-14T23:43:44.478Z,-7.65
2022-12-14T23:46:26.510Z,-7.67
2022-12-14T23:49:15.101Z,-7.62
2022-12-14T23:52:00.495Z,-7.65
2022-12-14T23:54:42.424Z,-7.52
2022-12-14T23:57:26.043Z,-7.51
